Time;durP1;ratioP1;P1;durP2;ratioP2;P2;SDS_P1;SDS_P2;PMS_P1;PMS_P2;Temp;Humidity;BMP_temperature;BMP_pressure;BME280_temperature;BME280_humidity;BME280_pressure;Samples;Min_cycle;Max_cycle;Signal;HPM_P1;HPM_P2
2023/04/12 00:01:11;;;;;;;;;4.25;3.00;;;;;;;;5048190;28;10403;-85
2023/04/12 00:03:38;;;;;;;;;5.75;3.75;;;;;;;;5048426;28;10525;-80
2023/04/12 00:06:09;;;;;;;;;4.00;4.00;;;;;;;;5047573;28;10680;-81
2023/04/12 00:08:36;;;;;;;;;7.00;3.25;;;;;;;;5048019;28;10486;-86
2023/04/12 00:11:03;;;;;;;;;3.00;2.00;;;;;;;;5047868;28;10623;-82
2023/04/12 00:13:31;;;;;;;;;2.00;2.00;;;;;;;;5048567;28;10454;-85
2023/04/12 00:15:58;;;;;;;;;4.50;4.50;;;;;;;;5047422;28;10381;-84
2023/04/12 00:18:26;;;;;;;;;3.00;1.50;;;;;;;;5047169;28;10426;-85
2023/04/12 00:20:53;;;;;;;;;4.25;3.50;;;;;;;;5048492;28;10384;-85
2023/04/12 00:23:21;;;;;;;;;5.75;4.25;;;;;;;;5048026;28;11124;-85
2023/04/12 00:25:49;;;;;;;;;5.00;4.00;;;;;;;;5051685;28;10563;-83
2023/04/12 00:28:16;;;;;;;;;2.25;2.00;;;;;;;;5054859;28;10473;-86
2023/04/12 00:30:44;;;;;;;;;4.00;3.00;;;;;;;;5052271;28;10333;-84
2023/04/12 00:33:12;;;;;;;;;2.25;2.25;;;;;;;;5051868;28;10527;-86
2023/04/12 00:35:39;;;;;;;;;4.25;4.25;;;;;;;;5051936;28;10321;-87
2023/04/12 00:38:09;;;;;;;;;3.00;3.00;;;;;;;;5050527;28;10394;-85
2023/04/12 00:40:41;;;;;;;;;4.00;4.00;;;;;;;;5052109;28;10386;-84
2023/04/12 00:43:09;;;;;;;;;5.50;3.25;;;;;;;;5051968;28;10508;-88
2023/04/12 00:45:37;;;;;;;;;3.25;3.25;;;;;;;;5051691;28;10442;-85
2023/04/12 00:48:06;;;;;;;;;3.50;2.50;;;;;;;;5052120;28;10343;-88
2023/04/12 00:50:34;;;;;;;;;4.00;4.00;;;;;;;;5051672;28;10325;-87
2023/04/12 00:53:01;;;;;;;;;1.00;1.00;;;;;;;;5053413;28;10525;-88
2023/04/12 00:55:28;;;;;;;;;4.00;3.00;;;;;;;;5055468;28;10318;-87
2023/04/12 00:57:58;;;;;;;;;3.00;2.25;;;;;;;;5059918;28;10456;-87
2023/04/12 01:00:25;;;;;;;;;2.00;2.00;;;;;;;;5058279;28;10305;-86
2023/04/12 01:02:52;;;;;;;;;4.00;4.00;;;;;;;;5053010;28;10384;-86
2023/04/12 01:05:22;;;;;;;;;7.00;4.00;;;;;;;;5051045;28;10179;-87
2023/04/12 01:07:54;;;;;;;;;5.00;3.25;;;;;;;;5047893;28;10450;-87
2023/04/12 01:10:32;;;;;;;;;2.50;2.50;;;;;;;;5047903;28;10248;-79
2023/04/12 01:13:07;;;;;;;;;4.00;4.00;;;;;;;;5043317;28;10264;-78
2023/04/12 01:15:39;;;;;;;;;0.00;0.00;;;;;;;;5037120;28;11142;-79
2023/04/12 01:18:12;;;;;;;;;5.25;3.75;;;;;;;;5044129;28;10195;-78
2023/04/12 01:20:43;;;;;;;;;4.00;4.00;;;;;;;;5050371;28;10366;-86
2023/04/12 01:23:43;;;;;;;;;4.50;3.00;;;;;;;;5036911;28;10298;-87
2023/04/12 01:26:22;;;;;;;;;4.00;4.00;;;;;;;;5055679;28;10225;-84
2023/04/12 01:28:53;;;;;;;;;3.00;3.00;;;;;;;;5054726;28;10248;-86
2023/04/12 01:31:24;;;;;;;;;3.25;3.00;;;;;;;;5051382;28;10296;-88
2023/04/12 01:33:52;;;;;;;;;3.00;3.00;;;;;;;;5048686;28;10302;-87
2023/04/12 01:36:22;;;;;;;;;4.25;4.25;;;;;;;;5049564;28;10339;-88
2023/04/12 01:38:49;;;;;;;;;5.75;4.75;;;;;;;;5050530;28;10395;-85
2023/04/12 01:41:16;;;;;;;;;4.00;4.00;;;;;;;;5050988;28;10202;-81
2023/04/12 01:43:44;;;;;;;;;2.50;2.50;;;;;;;;5051033;28;10229;-86
2023/04/12 01:46:15;;;;;;;;;4.00;4.00;;;;;;;;5053696;28;10102;-87
2023/04/12 01:48:49;;;;;;;;;2.25;2.25;;;;;;;;5052280;28;10286;-82
2023/04/12 01:51:20;;;;;;;;;2.75;2.75;;;;;;;;5050771;28;10119;-77
2023/04/12 01:53:50;;;;;;;;;4.50;4.50;;;;;;;;5050607;28;10298;-84
2023/04/12 01:56:20;;;;;;;;;5.00;5.00;;;;;;;;5053173;28;10169;-84
2023/04/12 01:58:48;;;;;;;;;4.50;3.25;;;;;;;;5051346;28;10154;-79
2023/04/12 02:01:18;;;;;;;;;6.75;4.00;;;;;;;;5049671;28;10377;-82
2023/04/12 02:03:48;;;;;;;;;3.25;3.25;;;;;;;;5049564;28;10259;-80
2023/04/12 02:06:16;;;;;;;;;3.75;3.75;;;;;;;;5050073;28;10176;-79
2023/04/12 02:08:43;;;;;;;;;3.00;3.00;;;;;;;;5048437;28;10190;-82
2023/04/12 02:11:11;;;;;;;;;3.00;3.00;;;;;;;;5050183;28;10040;-84
2023/04/12 02:13:38;;;;;;;;;5.50;4.75;;;;;;;;5049375;28;10102;-84
2023/04/12 02:16:06;;;;;;;;;3.75;3.75;;;;;;;;5049723;28;10341;-83
2023/04/12 02:18:35;;;;;;;;;3.00;3.00;;;;;;;;5049089;28;10234;-84
2023/04/12 02:21:02;;;;;;;;;3.75;3.75;;;;;;;;5049146;28;10337;-85
2023/04/12 02:23:29;;;;;;;;;4.75;4.75;;;;;;;;5049432;28;10246;-83
2023/04/12 02:25:56;;;;;;;;;2.25;2.25;;;;;;;;5049720;28;10935;-84
2023/04/12 02:28:23;;;;;;;;;3.00;3.00;;;;;;;;5049293;28;10077;-83
2023/04/12 02:30:52;;;;;;;;;3.75;3.75;;;;;;;;5048321;28;10043;-84
2023/04/12 02:33:20;;;;;;;;;6.00;4.00;;;;;;;;5049272;28;10200;-84
2023/04/12 02:35:49;;;;;;;;;2.00;2.00;;;;;;;;5049376;28;10094;-85
2023/04/12 02:38:16;;;;;;;;;3.00;1.00;;;;;;;;5046302;28;10021;-78
2023/04/12 02:40:44;;;;;;;;;4.75;4.75;;;;;;;;5049723;28;10267;-84
2023/04/12 02:43:11;;;;;;;;;3.50;3.50;;;;;;;;5049791;28;10156;-83
2023/04/12 02:45:38;;;;;;;;;4.25;4.00;;;;;;;;5050109;28;10121;-82
2023/04/12 02:48:06;;;;;;;;;4.50;3.00;;;;;;;;5050887;28;10021;-81
2023/04/12 02:50:33;;;;;;;;;4.00;2.00;;;;;;;;5052782;28;10124;-85
2023/04/12 02:53:01;;;;;;;;;3.00;3.00;;;;;;;;5053526;28;10081;-87
2023/04/12 02:55:29;;;;;;;;;4.50;3.00;;;;;;;;5051702;28;10114;-82
2023/04/12 02:57:57;;;;;;;;;3.50;3.00;;;;;;;;5034254;28;10933;-81
2023/04/12 03:00:24;;;;;;;;;4.00;4.00;;;;;;;;5049196;28;10033;-79
2023/04/12 03:02:52;;;;;;;;;3.50;3.00;;;;;;;;5039028;28;10057;-80
2023/04/12 03:05:19;;;;;;;;;6.00;4.50;;;;;;;;5040722;28;9992;-78
2023/04/12 03:07:47;;;;;;;;;3.00;3.00;;;;;;;;5038701;28;10862;-78
2023/04/12 03:10:16;;;;;;;;;4.00;4.00;;;;;;;;5048845;28;10021;-87
2023/04/12 03:12:43;;;;;;;;;3.25;3.25;;;;;;;;5049281;28;10114;-88
2023/04/12 03:15:11;;;;;;;;;3.25;3.25;;;;;;;;5042436;28;10143;-90
2023/04/12 03:17:38;;;;;;;;;4.50;4.50;;;;;;;;5044950;28;9937;-81
2023/04/12 03:20:08;;;;;;;;;4.00;4.00;;;;;;;;5048855;28;10148;-90
2023/04/12 03:22:36;;;;;;;;;7.00;4.25;;;;;;;;5048455;28;10715;-89
2023/04/12 03:25:03;;;;;;;;;5.00;5.00;;;;;;;;5048766;28;10153;-87
2023/04/12 03:27:32;;;;;;;;;3.75;3.75;;;;;;;;5051729;28;10075;-87
2023/04/12 03:29:59;;;;;;;;;2.50;2.50;;;;;;;;5050313;28;9768;-89
2023/04/12 03:32:27;;;;;;;;;4.00;2.50;;;;;;;;5047691;28;9904;-84
2023/04/12 03:34:54;;;;;;;;;2.25;2.25;;;;;;;;5049159;28;9831;-86
2023/04/12 03:37:21;;;;;;;;;4.00;2.50;;;;;;;;5049196;28;9995;-85
2023/04/12 03:39:48;;;;;;;;;2.50;2.50;;;;;;;;5050882;28;10502;-87
2023/04/12 03:42:15;;;;;;;;;2.00;2.00;;;;;;;;5049494;28;9661;-85
2023/04/12 03:44:44;;;;;;;;;3.50;3.50;;;;;;;;5049234;28;9695;-84
2023/04/12 03:47:11;;;;;;;;;5.25;5.00;;;;;;;;5047330;28;9782;-86
2023/04/12 03:49:38;;;;;;;;;4.00;3.00;;;;;;;;5060333;28;9860;-84
2023/04/12 03:52:06;;;;;;;;;1.00;1.00;;;;;;;;5048056;28;9805;-86
2023/04/12 03:54:34;;;;;;;;;4.00;2.25;;;;;;;;5048249;28;9626;-87
2023/04/12 03:57:01;;;;;;;;;3.25;3.25;;;;;;;;5047940;28;9738;-83
2023/04/12 03:59:28;;;;;;;;;4.25;4.25;;;;;;;;5048617;28;9943;-82
2023/04/12 04:01:57;;;;;;;;;3.00;3.00;;;;;;;;5051100;28;9828;-86
2023/04/12 04:04:25;;;;;;;;;3.25;3.25;;;;;;;;5051442;28;9880;-79
2023/04/12 04:06:52;;;;;;;;;2.25;2.25;;;;;;;;5050862;28;9861;-79
2023/04/12 04:09:19;;;;;;;;;3.50;3.50;;;;;;;;5050905;28;9960;-85
2023/04/12 04:11:48;;;;;;;;;2.50;2.50;;;;;;;;5051198;28;9944;-85
2023/04/12 04:14:16;;;;;;;;;3.00;3.00;;;;;;;;5051977;28;9901;-88
2023/04/12 04:16:43;;;;;;;;;3.00;3.00;;;;;;;;5051905;28;9972;-88
2023/04/12 04:19:12;;;;;;;;;4.25;4.25;;;;;;;;5051101;28;9888;-87
2023/04/12 04:21:39;;;;;;;;;1.00;1.00;;;;;;;;5051839;28;9934;-87
2023/04/12 04:24:08;;;;;;;;;4.00;4.00;;;;;;;;5051314;28;9958;-87
2023/04/12 04:26:37;;;;;;;;;2.75;2.00;;;;;;;;5053383;28;10022;-84
2023/04/12 04:29:04;;;;;;;;;3.25;3.00;;;;;;;;5052139;28;9961;-87
2023/04/12 04:31:35;;;;;;;;;3.25;2.50;;;;;;;;5050991;28;9821;-83
2023/04/12 04:34:04;;;;;;;;;1.00;0.00;;;;;;;;5051011;28;9847;-85
2023/04/12 04:36:34;;;;;;;;;0.00;0.00;;;;;;;;5051496;28;9778;-82
2023/04/12 04:39:03;;;;;;;;;0.00;0.00;;;;;;;;5051359;28;10016;-86
2023/04/12 04:41:33;;;;;;;;;0.00;0.00;;;;;;;;5052061;28;10088;-83
2023/04/12 04:44:00;;;;;;;;;0.00;0.00;;;;;;;;5041842;28;10010;-84
2023/04/12 04:46:30;;;;;;;;;0.00;0.00;;;;;;;;5055481;28;10366;-89
2023/04/12 04:48:58;;;;;;;;;1.00;0.00;;;;;;;;5046405;28;10138;-85
2023/04/12 04:51:26;;;;;;;;;0.00;0.00;;;;;;;;5049662;28;10264;-82
2023/04/12 04:53:54;;;;;;;;;0.00;0.00;;;;;;;;5052950;28;10289;-82
2023/04/12 04:56:22;;;;;;;;;0.00;0.00;;;;;;;;5053073;28;10341;-84
2023/04/12 04:58:49;;;;;;;;;0.00;0.00;;;;;;;;5053243;28;10146;-89
2023/04/12 05:01:16;;;;;;;;;0.00;0.00;;;;;;;;5038000;28;10398;-88
2023/04/12 05:03:44;;;;;;;;;0.00;0.00;;;;;;;;5047112;28;10438;-85
2023/04/12 05:06:11;;;;;;;;;0.00;0.00;;;;;;;;5049954;28;10360;-87
2023/04/12 05:08:38;;;;;;;;;0.00;0.00;;;;;;;;5049936;28;10319;-88
2023/04/12 05:11:07;;;;;;;;;0.00;0.00;;;;;;;;5040979;28;10660;-89
2023/04/12 05:13:35;;;;;;;;;0.00;0.00;;;;;;;;5050293;28;10660;-82
2023/04/12 05:16:05;;;;;;;;;0.75;0.00;;;;;;;;5046048;28;10472;-89
2023/04/12 05:18:32;;;;;;;;;0.00;0.00;;;;;;;;5050177;28;11336;-83
2023/04/12 05:21:02;;;;;;;;;0.00;0.00;;;;;;;;5049669;28;10538;-85
2023/04/12 05:23:33;;;;;;;;;0.00;0.00;;;;;;;;5049912;28;10529;-84
2023/04/12 05:26:00;;;;;;;;;0.00;0.00;;;;;;;;5052728;28;10684;-83
2023/04/12 05:28:28;;;;;;;;;1.75;0.00;;;;;;;;5052953;28;10579;-87
2023/04/12 05:30:56;;;;;;;;;1.00;0.00;;;;;;;;5047379;28;10722;-84
2023/04/12 05:33:23;;;;;;;;;0.00;0.00;;;;;;;;5043926;28;10687;-86
2023/04/12 05:35:50;;;;;;;;;0.00;0.00;;;;;;;;5050869;28;10532;-85
2023/04/12 05:38:17;;;;;;;;;0.00;0.00;;;;;;;;5050922;28;10860;-82
2023/04/12 05:40:45;;;;;;;;;0.00;0.00;;;;;;;;5050045;28;10582;-86
2023/04/12 05:43:12;;;;;;;;;0.00;0.00;;;;;;;;5048318;28;10683;-85
2023/04/12 05:45:41;;;;;;;;;0.00;0.00;;;;;;;;5049295;28;10760;-86
2023/04/12 05:48:08;;;;;;;;;0.00;0.00;;;;;;;;5049019;28;10513;-75
2023/04/12 05:50:35;;;;;;;;;0.00;0.00;;;;;;;;5048854;28;10545;-81
2023/04/12 05:53:03;;;;;;;;;0.00;0.00;;;;;;;;5047822;28;10452;-77
2023/04/12 05:55:30;;;;;;;;;0.00;0.00;;;;;;;;5041094;28;10375;-73
2023/04/12 05:57:57;;;;;;;;;0.00;0.00;;;;;;;;5035768;28;10393;-72
2023/04/12 06:00:25;;;;;;;;;0.00;0.00;;;;;;;;5048224;28;10390;-78
2023/04/12 06:02:53;;;;;;;;;0.00;0.00;;;;;;;;5044146;28;10306;-75
2023/04/12 06:05:21;;;;;;;;;0.00;0.00;;;;;;;;5043095;28;10497;-80
2023/04/12 06:07:49;;;;;;;;;0.25;0.25;;;;;;;;5048160;28;11255;-73
2023/04/12 06:10:17;;;;;;;;;0.00;0.00;;;;;;;;5043040;28;10366;-77
2023/04/12 06:12:44;;;;;;;;;0.00;0.00;;;;;;;;5044653;28;10424;-78
2023/04/12 06:15:12;;;;;;;;;0.75;0.00;;;;;;;;5048482;28;10285;-77
2023/04/12 06:17:39;;;;;;;;;0.00;0.00;;;;;;;;5048458;28;10366;-74
2023/04/12 06:20:09;;;;;;;;;0.00;0.00;;;;;;;;5047652;28;10306;-80
2023/04/12 06:22:36;;;;;;;;;0.00;0.00;;;;;;;;5047374;28;10368;-79
2023/04/12 06:25:03;;;;;;;;;0.00;0.00;;;;;;;;5039391;28;11187;-79
2023/04/12 06:27:30;;;;;;;;;0.00;0.00;;;;;;;;5048456;28;10449;-78
2023/04/12 06:29:58;;;;;;;;;0.00;0.00;;;;;;;;5048438;28;10317;-77
2023/04/12 06:32:25;;;;;;;;;0.00;0.00;;;;;;;;5047742;28;10413;-76
2023/04/12 06:34:52;;;;;;;;;0.00;0.00;;;;;;;;5049327;28;10382;-76
2023/04/12 06:37:21;;;;;;;;;1.00;0.00;;;;;;;;5050746;28;10448;-75
2023/04/12 06:39:48;;;;;;;;;0.00;0.00;;;;;;;;5052859;28;10389;-75
2023/04/12 06:42:16;;;;;;;;;0.00;0.00;;;;;;;;5051170;28;10498;-72
2023/04/12 06:44:43;;;;;;;;;0.00;0.00;;;;;;;;5050425;28;10315;-75
2023/04/12 06:47:10;;;;;;;;;0.00;0.00;;;;;;;;5047813;28;10291;-75
2023/04/12 06:49:39;;;;;;;;;0.25;0.25;;;;;;;;5047765;28;11119;-76
2023/04/12 06:52:06;;;;;;;;;2.00;0.00;;;;;;;;5043166;28;10321;-75
2023/04/12 06:54:37;;;;;;;;;1.00;1.00;;;;;;;;5040822;28;10128;-75
2023/04/12 06:57:08;;;;;;;;;1.00;1.00;;;;;;;;5047060;28;10320;-73
2023/04/12 06:59:35;;;;;;;;;0.75;0.75;;;;;;;;5047509;28;10493;-77
2023/04/12 07:02:02;;;;;;;;;0.75;0.75;;;;;;;;5046811;28;10130;-76
2023/04/12 07:04:30;;;;;;;;;0.00;0.00;;;;;;;;5047110;28;10375;-75
2023/04/12 07:06:57;;;;;;;;;0.00;0.00;;;;;;;;5046796;28;10943;-74
2023/04/12 07:09:24;;;;;;;;;0.00;0.00;;;;;;;;5046781;28;10360;-74
2023/04/12 07:11:53;;;;;;;;;0.00;0.00;;;;;;;;5047196;28;10262;-74
2023/04/12 07:14:20;;;;;;;;;1.00;1.00;;;;;;;;5046994;28;10230;-76
2023/04/12 07:16:47;;;;;;;;;0.00;0.00;;;;;;;;5047626;28;10220;-75
2023/04/12 07:19:15;;;;;;;;;1.00;1.00;;;;;;;;5038002;28;10321;-73
2023/04/12 07:21:42;;;;;;;;;1.00;1.00;;;;;;;;5047787;28;10375;-76
2023/04/12 07:24:09;;;;;;;;;0.00;0.00;;;;;;;;5042911;28;10403;-73
2023/04/12 07:26:37;;;;;;;;;0.50;0.50;;;;;;;;5038476;28;10244;-73
2023/04/12 07:29:05;;;;;;;;;1.00;1.00;;;;;;;;5047019;28;10296;-72
2023/04/12 07:31:32;;;;;;;;;1.00;1.00;;;;;;;;5046873;28;10194;-74
2023/04/12 07:33:59;;;;;;;;;1.75;1.75;;;;;;;;5046485;28;10450;-75
2023/04/12 07:36:27;;;;;;;;;0.00;0.00;;;;;;;;5051256;28;11223;-72
2023/04/12 07:38:55;;;;;;;;;0.25;0.25;;;;;;;;5047397;28;10359;-76
2023/04/12 07:41:22;;;;;;;;;1.00;1.00;;;;;;;;5042911;28;10264;-77
2023/04/12 07:43:49;;;;;;;;;2.00;1.00;;;;;;;;5049629;28;11091;-74
2023/04/12 07:46:18;;;;;;;;;0.00;0.00;;;;;;;;5051502;28;10306;-73
2023/04/12 07:48:45;;;;;;;;;0.00;0.00;;;;;;;;5050846;28;10156;-72
2023/04/12 07:51:13;;;;;;;;;0.00;0.00;;;;;;;;5051384;28;10101;-75
2023/04/12 07:53:41;;;;;;;;;1.00;1.00;;;;;;;;5050275;28;11000;-74
2023/04/12 07:56:08;;;;;;;;;3.75;2.00;;;;;;;;5050031;28;10410;-78
2023/04/12 07:58:35;;;;;;;;;3.75;2.00;;;;;;;;5038850;28;10233;-76
2023/04/12 08:01:03;;;;;;;;;0.00;0.00;;;;;;;;5049869;28;10098;-77
2023/04/12 08:03:31;;;;;;;;;0.75;0.75;;;;;;;;5039847;28;10145;-76
2023/04/12 08:05:58;;;;;;;;;1.00;1.00;;;;;;;;5050375;28;10100;-78
2023/04/12 08:08:26;;;;;;;;;3.25;3.00;;;;;;;;5050164;28;10260;-77
2023/04/12 08:10:53;;;;;;;;;3.25;2.00;;;;;;;;5049879;28;10304;-75
2023/04/12 08:13:21;;;;;;;;;1.25;1.25;;;;;;;;5050601;28;10088;-75
2023/04/12 08:15:48;;;;;;;;;4.00;2.50;;;;;;;;5049609;28;10180;-76
2023/04/12 08:18:15;;;;;;;;;1.00;1.00;;;;;;;;5051185;28;9927;-75
2023/04/12 08:20:44;;;;;;;;;0.50;0.50;;;;;;;;5049724;28;9851;-74
2023/04/12 08:23:11;;;;;;;;;1.50;0.00;;;;;;;;5042310;28;9804;-75
2023/04/12 08:25:38;;;;;;;;;0.00;0.00;;;;;;;;5046124;28;9766;-75
2023/04/12 08:28:07;;;;;;;;;1.25;1.25;;;;;;;;5052469;28;9636;-75
2023/04/12 08:30:34;;;;;;;;;3.00;1.00;;;;;;;;5053577;28;9559;-73
2023/04/12 08:33:02;;;;;;;;;1.00;1.00;;;;;;;;5044001;28;9740;-75
2023/04/12 08:35:29;;;;;;;;;0.00;0.00;;;;;;;;5048487;28;9543;-74
2023/04/12 08:37:59;;;;;;;;;0.75;0.75;;;;;;;;5049863;28;9564;-75
2023/04/12 08:40:26;;;;;;;;;1.50;1.00;;;;;;;;5039974;28;9532;-73
2023/04/12 08:42:53;;;;;;;;;0.00;0.00;;;;;;;;5040555;28;9757;-74
2023/04/12 08:45:23;;;;;;;;;1.00;1.00;;;;;;;;5048656;28;9944;-73
2023/04/12 08:47:50;;;;;;;;;2.00;1.00;;;;;;;;5048710;28;10420;-72
2023/04/12 08:50:17;;;;;;;;;0.00;0.00;;;;;;;;5048968;28;9782;-73
2023/04/12 08:52:45;;;;;;;;;2.50;0.50;;;;;;;;5049158;28;10475;-81
2023/04/12 08:55:13;;;;;;;;;0.00;0.00;;;;;;;;5049311;28;9795;-77
2023/04/12 08:57:41;;;;;;;;;0.00;0.00;;;;;;;;5049499;28;9502;-82
2023/04/12 09:00:10;;;;;;;;;0.00;0.00;;;;;;;;5036355;28;9513;-80
2023/04/12 09:02:37;;;;;;;;;0.50;0.50;;;;;;;;5049414;28;9602;-72
2023/04/12 09:05:05;;;;;;;;;0.00;0.00;;;;;;;;5048864;28;9631;-75
2023/04/12 09:07:33;;;;;;;;;1.00;0.00;;;;;;;;5048697;28;9590;-72
2023/04/12 09:10:00;;;;;;;;;0.00;0.00;;;;;;;;5048444;28;9509;-75
2023/04/12 09:12:28;;;;;;;;;0.00;0.00;;;;;;;;5048362;28;9681;-70
2023/04/12 09:15:11;;;;;;;;;0.00;0.00;;;;;;;;5048540;28;9494;-75
2023/04/12 09:17:39;;;;;;;;;0.00;0.00;;;;;;;;5048844;28;9456;-76
2023/04/12 09:20:24;;;;;;;;;0.00;0.00;;;;;;;;5048397;28;9387;-71
2023/04/12 09:22:54;;;;;;;;;0.00;0.00;;;;;;;;5049232;28;10079;-74
2023/04/12 09:25:36;;;;;;;;;0.00;0.00;;;;;;;;5052586;28;9181;-70
2023/04/12 09:28:18;;;;;;;;;2.00;0.00;;;;;;;;5039248;28;9180;-71
2023/04/12 09:30:50;;;;;;;;;1.00;0.00;;;;;;;;5048372;28;9138;-70
2023/04/12 09:33:18;;;;;;;;;0.00;0.00;;;;;;;;5049795;28;9161;-77
2023/04/12 09:35:45;;;;;;;;;0.00;0.00;;;;;;;;5048443;28;9207;-73
2023/04/12 09:38:12;;;;;;;;;0.00;0.00;;;;;;;;5049286;28;9263;-73
2023/04/12 09:40:40;;;;;;;;;0.00;0.00;;;;;;;;5048592;28;9200;-73
2023/04/12 09:43:08;;;;;;;;;0.00;0.00;;;;;;;;5047912;28;9161;-73
2023/04/12 09:45:37;;;;;;;;;0.00;0.00;;;;;;;;5049031;28;9177;-74
2023/04/12 09:48:06;;;;;;;;;0.00;0.00;;;;;;;;5048302;28;9236;-75
2023/04/12 09:50:33;;;;;;;;;0.00;0.00;;;;;;;;5049114;28;9100;-77
2023/04/12 09:53:02;;;;;;;;;0.00;0.00;;;;;;;;5048363;28;9056;-74
2023/04/12 09:55:31;;;;;;;;;0.00;0.00;;;;;;;;5049509;28;9212;-78
2023/04/12 09:58:02;;;;;;;;;0.00;0.00;;;;;;;;5047404;28;9038;-77
2023/04/12 10:00:33;;;;;;;;;0.00;0.00;;;;;;;;5048410;28;8748;-77
2023/04/12 10:03:01;;;;;;;;;0.25;0.25;;;;;;;;5048303;28;9652;-74
2023/04/12 10:05:29;;;;;;;;;0.25;0.00;;;;;;;;5048656;28;8858;-77
2023/04/12 10:07:57;;;;;;;;;0.00;0.00;;;;;;;;5048000;28;9663;-77
2023/04/12 10:10:24;;;;;;;;;2.00;0.00;;;;;;;;5049160;28;8838;-73
2023/04/12 10:12:52;;;;;;;;;0.00;0.00;;;;;;;;5048594;28;8847;-75
2023/04/12 10:15:20;;;;;;;;;0.00;0.00;;;;;;;;5049226;28;8884;-76
2023/04/12 10:17:51;;;;;;;;;0.00;0.00;;;;;;;;5049700;28;8868;-76
2023/04/12 10:20:19;;;;;;;;;0.75;0.00;;;;;;;;5051683;28;8827;-75
2023/04/12 10:22:49;;;;;;;;;0.00;0.00;;;;;;;;5052047;28;8880;-77
2023/04/12 10:25:19;;;;;;;;;0.00;0.00;;;;;;;;5053675;28;8904;-75
2023/04/12 10:27:47;;;;;;;;;0.00;0.00;;;;;;;;5049995;28;8951;-73
2023/04/12 10:30:22;;;;;;;;;0.00;0.00;;;;;;;;5047976;28;8973;-76
2023/04/12 10:33:07;;;;;;;;;0.25;0.00;;;;;;;;5048134;28;8923;-73
2023/04/12 10:35:50;;;;;;;;;0.50;0.00;;;;;;;;5045647;28;8855;-74
2023/04/12 10:38:17;;;;;;;;;0.50;0.00;;;;;;;;5047641;28;9641;-74
2023/04/12 10:41:16;;;;;;;;;0.50;0.50;;;;;;;;5047829;28;8996;-74
2023/04/12 10:43:43;;;;;;;;;1.25;0.25;;;;;;;;5045967;28;8859;-76
2023/04/12 10:46:44;;;;;;;;;0.00;0.00;;;;;;;;5047791;28;9682;-76
2023/04/12 10:49:13;;;;;;;;;0.00;0.00;;;;;;;;5038200;28;8839;-74
2023/04/12 10:51:40;;;;;;;;;0.00;0.00;;;;;;;;5047588;28;8850;-72
2023/04/12 10:54:34;;;;;;;;;1.00;0.00;;;;;;;;5047267;28;8877;-72
2023/04/12 10:57:02;;;;;;;;;0.00;0.00;;;;;;;;5035500;28;8944;-75
2023/04/12 10:59:51;;;;;;;;;0.50;0.00;;;;;;;;5047315;28;9060;-73
2023/04/12 11:02:18;;;;;;;;;0.00;0.00;;;;;;;;5047062;28;8814;-75
2023/04/12 11:05:07;;;;;;;;;0.00;0.00;;;;;;;;5047436;28;8877;-73
2023/04/12 11:07:40;;;;;;;;;3.25;1.00;;;;;;;;5048289;28;8847;-77
2023/04/12 11:10:14;;;;;;;;;0.33;0.00;;;;;;;;5047061;28;9667;-72
2023/04/12 11:12:43;;;;;;;;;2.00;0.00;;;;;;;;5047650;28;9068;-75
2023/04/12 11:15:13;;;;;;;;;1.50;0.25;;;;;;;;5047818;28;9590;-78
2023/04/12 11:17:40;;;;;;;;;0.00;0.00;;;;;;;;5047490;28;8920;-78
2023/04/12 11:20:12;;;;;;;;;0.00;0.00;;;;;;;;5048573;28;8847;-75
2023/04/12 11:22:40;;;;;;;;;3.00;0.00;;;;;;;;5046581;28;9715;-78
2023/04/12 11:25:08;;;;;;;;;0.00;0.00;;;;;;;;5046020;28;9723;-74
2023/04/12 11:27:36;;;;;;;;;0.25;0.00;;;;;;;;5047105;28;8855;-73
2023/04/12 11:30:04;;;;;;;;;0.00;0.00;;;;;;;;5045397;28;9552;-72
2023/04/12 11:32:33;;;;;;;;;1.00;0.00;;;;;;;;5046772;28;9624;-76
2023/04/12 11:35:01;;;;;;;;;0.00;0.00;;;;;;;;5046127;28;8839;-73
2023/04/12 11:37:31;;;;;;;;;0.00;0.00;;;;;;;;5046575;28;8859;-75
2023/04/12 11:39:58;;;;;;;;;1.00;0.00;;;;;;;;5046264;28;9729;-73
2023/04/12 11:42:28;;;;;;;;;0.00;0.00;;;;;;;;5045772;28;8897;-72
2023/04/12 11:44:56;;;;;;;;;2.75;0.00;;;;;;;;5046304;28;8870;-76
2023/04/12 11:47:24;;;;;;;;;0.25;0.00;;;;;;;;5047022;28;8858;-77
2023/04/12 11:49:53;;;;;;;;;0.00;0.00;;;;;;;;5046518;28;8894;-73
2023/04/12 11:52:21;;;;;;;;;1.00;0.00;;;;;;;;5047340;28;9621;-78
2023/04/12 11:54:55;;;;;;;;;0.00;0.00;;;;;;;;5046045;28;8842;-76
2023/04/12 11:57:22;;;;;;;;;1.50;0.00;;;;;;;;5047033;28;8850;-75
2023/04/12 11:59:51;;;;;;;;;0.00;0.00;;;;;;;;5045990;28;9006;-74
2023/04/12 12:02:19;;;;;;;;;0.25;0.25;;;;;;;;5046037;28;8952;-74
2023/04/12 12:04:48;;;;;;;;;0.00;0.00;;;;;;;;5046696;28;8878;-75
2023/04/12 12:07:21;;;;;;;;;0.00;0.00;;;;;;;;5047463;28;9060;-74
2023/04/12 12:09:51;;;;;;;;;0.00;0.00;;;;;;;;5045182;28;9310;-72
2023/04/12 12:12:18;;;;;;;;;0.00;0.00;;;;;;;;5047466;28;9546;-71
2023/04/12 12:14:46;;;;;;;;;0.00;0.00;;;;;;;;5053269;28;9907;-71
2023/04/12 12:17:16;;;;;;;;;0.00;0.00;;;;;;;;5052881;28;10026;-71
2023/04/12 12:19:44;;;;;;;;;0.00;0.00;;;;;;;;5046673;28;10064;-72
2023/04/12 12:22:13;;;;;;;;;0.00;0.00;;;;;;;;5048882;28;9939;-73
2023/04/12 12:24:44;;;;;;;;;1.00;0.00;;;;;;;;5048448;28;10651;-73
2023/04/12 12:27:13;;;;;;;;;0.00;0.00;;;;;;;;5035249;28;10211;-73
2023/04/12 12:29:40;;;;;;;;;0.00;0.00;;;;;;;;5038086;28;9557;-74
2023/04/12 12:32:12;;;;;;;;;0.00;0.00;;;;;;;;5048815;28;9432;-75
2023/04/12 12:34:40;;;;;;;;;4.50;3.00;;;;;;;;5049488;28;9400;-74
2023/04/12 12:37:13;;;;;;;;;0.00;0.00;;;;;;;;5049118;28;9490;-75
2023/04/12 12:39:49;;;;;;;;;0.00;0.00;;;;;;;;5049314;28;9328;-73
2023/04/12 12:42:17;;;;;;;;;1.00;0.00;;;;;;;;5045183;28;9247;-72
2023/04/12 12:44:44;;;;;;;;;0.67;0.00;;;;;;;;5048715;28;9163;-72
2023/04/12 12:47:11;;;;;;;;;0.00;0.00;;;;;;;;5049373;28;8975;-73
2023/04/12 12:49:39;;;;;;;;;0.50;0.00;;;;;;;;5049319;28;8855;-75
2023/04/12 12:52:06;;;;;;;;;1.00;1.00;;;;;;;;5049247;28;8871;-72
2023/04/12 12:54:34;;;;;;;;;0.00;0.00;;;;;;;;5048849;28;8848;-73
